sensor_id;sensor_type;location;lat;lon;timestamp;temperature;humidity
11656;DHT22;5884;43.618;1.438;2022-09-24T04:47:22;16.40;99.90
11656;DHT22;5884;43.618;1.438;2022-09-24T04:49:50;16.40;99.90
11656;DHT22;5884;43.618;1.438;2022-09-24T04:52:18;16.40;99.90
11656;DHT22;5884;43.618;1.438;2022-09-24T04:54:50;16.40;99.90
11656;DHT22;5884;43.618;1.438;2022-09-24T04:57:17;16.40;99.90
11656;DHT22;5884;43.618;1.438;2022-09-24T04:59:45;16.40;99.90
11656;DHT22;5884;43.618;1.438;2022-09-24T05:02:13;16.40;99.90
11656;DHT22;5884;43.618;1.438;2022-09-24T05:04:41;16.30;99.90
11656;DHT22;5884;43.618;1.438;2022-09-24T05:07:09;16.40;99.90
11656;DHT22;5884;43.618;1.438;2022-09-24T05:09:37;16.40;99.90
11656;DHT22;5884;43.618;1.438;2022-09-24T05:12:04;16.40;99.90
11656;DHT22;5884;43.618;1.438;2022-09-24T05:14:31;16.40;99.90
11656;DHT22;5884;43.618;1.438;2022-09-24T05:16:59;16.40;99.90
11656;DHT22;5884;43.618;1.438;2022-09-24T05:19:26;16.40;99.90
11656;DHT22;5884;43.618;1.438;2022-09-24T05:21:55;16.40;99.90
11656;DHT22;5884;43.618;1.438;2022-09-24T05:24:22;16.40;99.90
11656;DHT22;5884;43.618;1.438;2022-09-24T05:26:49;16.40;99.90
11656;DHT22;5884;43.618;1.438;2022-09-24T05:29:36;16.30;99.90
11656;DHT22;5884;43.618;1.438;2022-09-24T05:32:05;16.40;99.90
11656;DHT22;5884;43.618;1.438;2022-09-24T05:34:33;16.40;99.90
11656;DHT22;5884;43.618;1.438;2022-09-24T05:37:03;16.40;99.90
11656;DHT22;5884;43.618;1.438;2022-09-24T05:39:30;16.40;99.90
11656;DHT22;5884;43.618;1.438;2022-09-24T05:41:57;16.40;99.90
11656;DHT22;5884;43.618;1.438;2022-09-24T05:44:25;16.50;99.90
11656;DHT22;5884;43.618;1.438;2022-09-24T05:46:52;16.40;99.90
11656;DHT22;5884;43.618;1.438;2022-09-24T05:49:20;16.40;99.90
11656;DHT22;5884;43.618;1.438;2022-09-24T05:51:47;16.40;99.90
11656;DHT22;5884;43.618;1.438;2022-09-24T05:54:17;16.40;99.90
11656;DHT22;5884;43.618;1.438;2022-09-24T05:56:45;16.40;99.90
11656;DHT22;5884;43.618;1.438;2022-09-24T05:59:12;16.40;99.90
11656;DHT22;5884;43.618;1.438;2022-09-24T06:01:40;16.40;99.90
11656;DHT22;5884;43.618;1.438;2022-09-24T06:04:08;16.40;99.90
11656;DHT22;5884;43.618;1.438;2022-09-24T06:06:37;16.40;99.90
11656;DHT22;5884;43.618;1.438;2022-09-24T06:09:04;16.50;99.90
11656;DHT22;5884;43.618;1.438;2022-09-24T06:11:34;16.50;99.90
11656;DHT22;5884;43.618;1.438;2022-09-24T06:14:03;16.50;99.90
11656;DHT22;5884;43.618;1.438;2022-09-24T06:16:32;16.50;99.90
11656;DHT22;5884;43.618;1.438;2022-09-24T06:18:59;16.50;99.90
11656;DHT22;5884;43.618;1.438;2022-09-24T06:21:27;16.50;99.90
11656;DHT22;5884;43.618;1.438;2022-09-24T06:23:54;16.50;99.90
11656;DHT22;5884;43.618;1.438;2022-09-24T06:26:21;16.50;99.90
11656;DHT22;5884;43.618;1.438;2022-09-24T06:28:52;16.50;99.90
11656;DHT22;5884;43.618;1.438;2022-09-24T06:31:19;16.50;99.90
11656;DHT22;5884;43.618;1.438;2022-09-24T06:33:47;16.50;99.90
11656;DHT22;5884;43.618;1.438;2022-09-24T06:36:14;16.50;99.90
11656;DHT22;5884;43.618;1.438;2022-09-24T06:38:41;16.50;99.90
11656;DHT22;5884;43.618;1.438;2022-09-24T06:41:10;16.50;99.90
11656;DHT22;5884;43.618;1.438;2022-09-24T06:43:37;16.50;99.90
11656;DHT22;5884;43.618;1.438;2022-09-24T06:46:06;16.50;99.90
11656;DHT22;5884;43.618;1.438;2022-09-24T06:48:33;16.50;99.90
11656;DHT22;5884;43.618;1.438;2022-09-24T06:51:04;16.60;99.90
11656;DHT22;5884;43.618;1.438;2022-09-24T06:53:32;16.60;99.90
11656;DHT22;5884;43.618;1.438;2022-09-24T06:55:59;16.60;99.90
11656;DHT22;5884;43.618;1.438;2022-09-24T06:58:28;16.60;99.90
11656;DHT22;5884;43.618;1.438;2022-09-24T07:00:57;16.60;99.90
11656;DHT22;5884;43.618;1.438;2022-09-24T07:03:31;16.60;99.90
11656;DHT22;5884;43.618;1.438;2022-09-24T07:06:00;16.50;99.90
11656;DHT22;5884;43.618;1.438;2022-09-24T07:08:28;16.60;99.90
11656;DHT22;5884;43.618;1.438;2022-09-24T07:10:55;16.60;99.90
11656;DHT22;5884;43.618;1.438;2022-09-24T07:13:23;16.70;99.90
11656;DHT22;5884;43.618;1.438;2022-09-24T07:15:51;16.70;99.90
11656;DHT22;5884;43.618;1.438;2022-09-24T07:18:19;16.70;99.90
11656;DHT22;5884;43.618;1.438;2022-09-24T07:20:52;16.60;99.90
11656;DHT22;5884;43.618;1.438;2022-09-24T07:23:19;16.60;99.90
11656;DHT22;5884;43.618;1.438;2022-09-24T07:25:48;16.70;99.90
11656;DHT22;5884;43.618;1.438;2022-09-24T07:28:26;16.70;99.90
11656;DHT22;5884;43.618;1.438;2022-09-24T07:30:58;16.70;99.90
11656;DHT22;5884;43.618;1.438;2022-09-24T07:33:25;16.70;99.90
11656;DHT22;5884;43.618;1.438;2022-09-24T07:35:52;16.80;99.90
11656;DHT22;5884;43.618;1.438;2022-09-24T07:38:20;17.00;99.90
11656;DHT22;5884;43.618;1.438;2022-09-24T07:40:47;17.10;99.90
11656;DHT22;5884;43.618;1.438;2022-09-24T07:43:15;17.20;99.90
11656;DHT22;5884;43.618;1.438;2022-09-24T07:45:43;17.20;99.90
11656;DHT22;5884;43.618;1.438;2022-09-24T07:48:11;17.20;99.90
11656;DHT22;5884;43.618;1.438;2022-09-24T07:50:41;17.10;99.90
11656;DHT22;5884;43.618;1.438;2022-09-24T07:53:09;17.10;99.90
11656;DHT22;5884;43.618;1.438;2022-09-24T07:55:38;17.10;99.90
11656;DHT22;5884;43.618;1.438;2022-09-24T07:58:07;17.30;99.90
11656;DHT22;5884;43.618;1.438;2022-09-24T08:00:38;17.40;99.90
11656;DHT22;5884;43.618;1.438;2022-09-24T08:03:07;17.30;99.90
11656;DHT22;5884;43.618;1.438;2022-09-24T08:05:34;17.10;99.90
11656;DHT22;5884;43.618;1.438;2022-09-24T08:08:02;17.10;99.90
11656;DHT22;5884;43.618;1.438;2022-09-24T08:10:29;17.10;99.90
11656;DHT22;5884;43.618;1.438;2022-09-24T08:13:00;17.20;99.90
11656;DHT22;5884;43.618;1.438;2022-09-24T08:15:28;17.30;99.90
11656;DHT22;5884;43.618;1.438;2022-09-24T08:18:00;17.20;99.90
11656;DHT22;5884;43.618;1.438;2022-09-24T08:20:30;17.10;99.90
11656;DHT22;5884;43.618;1.438;2022-09-24T08:22:59;17.10;99.90
11656;DHT22;5884;43.618;1.438;2022-09-24T08:25:28;17.10;99.90
11656;DHT22;5884;43.618;1.438;2022-09-24T08:27:59;17.20;99.90
11656;DHT22;5884;43.618;1.438;2022-09-24T08:30:27;17.30;99.90
11656;DHT22;5884;43.618;1.438;2022-09-24T08:32:55;17.40;99.90
11656;DHT22;5884;43.618;1.438;2022-09-24T08:35:23;17.30;99.90
11656;DHT22;5884;43.618;1.438;2022-09-24T08:37:53;17.20;99.90
11656;DHT22;5884;43.618;1.438;2022-09-24T08:40:23;17.00;99.90
11656;DHT22;5884;43.618;1.438;2022-09-24T08:42:57;17.00;99.90
11656;DHT22;5884;43.618;1.438;2022-09-24T08:45:32;17.20;99.90
11656;DHT22;5884;43.618;1.438;2022-09-24T08:48:24;17.30;99.90
11656;DHT22;5884;43.618;1.438;2022-09-24T08:51:00;17.40;99.90
11656;DHT22;5884;43.618;1.438;2022-09-24T08:53:41;17.60;99.90
11656;DHT22;5884;43.618;1.438;2022-09-24T08:56:24;17.60;99.90
11656;DHT22;5884;43.618;1.438;2022-09-24T08:58:56;17.50;99.90
11656;DHT22;5884;43.618;1.438;2022-09-24T09:01:32;17.40;99.90
11656;DHT22;5884;43.618;1.438;2022-09-24T09:04:10;17.20;99.90
11656;DHT22;5884;43.618;1.438;2022-09-24T09:06:57;17.30;99.90
11656;DHT22;5884;43.618;1.438;2022-09-24T09:09:41;17.40;99.90
11656;DHT22;5884;43.618;1.438;2022-09-24T09:12:14;17.50;99.90
11656;DHT22;5884;43.618;1.438;2022-09-24T09:14:48;17.50;99.90
11656;DHT22;5884;43.618;1.438;2022-09-24T09:17:31;17.60;99.90
11656;DHT22;5884;43.618;1.438;2022-09-24T09:20:06;17.60;99.90
11656;DHT22;5884;43.618;1.438;2022-09-24T09:22:40;17.60;99.90
11656;DHT22;5884;43.618;1.438;2022-09-24T09:25:19;17.60;99.90
11656;DHT22;5884;43.618;1.438;2022-09-24T09:27:57;17.60;99.90
11656;DHT22;5884;43.618;1.438;2022-09-24T09:30:30;17.60;99.90
11656;DHT22;5884;43.618;1.438;2022-09-24T09:33:17;17.90;99.90
11656;DHT22;5884;43.618;1.438;2022-09-24T09:35:55;17.90;99.90
11656;DHT22;5884;43.618;1.438;2022-09-24T09:38:32;18.00;99.90
11656;DHT22;5884;43.618;1.438;2022-09-24T09:41:13;18.00;99.90
11656;DHT22;5884;43.618;1.438;2022-09-24T09:43:43;18.20;99.90
11656;DHT22;5884;43.618;1.438;2022-09-24T09:46:13;18.30;99.90
11656;DHT22;5884;43.618;1.438;2022-09-24T09:48:46;18.20;99.90
11656;DHT22;5884;43.618;1.438;2022-09-24T09:51:18;18.00;99.90
11656;DHT22;5884;43.618;1.438;2022-09-24T09:53:54;18.00;99.90
11656;DHT22;5884;43.618;1.438;2022-09-24T09:56:25;18.10;99.90
11656;DHT22;5884;43.618;1.438;2022-09-24T09:59:03;18.30;99.90
11656;DHT22;5884;43.618;1.438;2022-09-24T10:01:34;18.40;99.90
11656;DHT22;5884;43.618;1.438;2022-09-24T10:04:03;18.60;99.90
11656;DHT22;5884;43.618;1.438;2022-09-24T10:06:32;18.60;99.90
11656;DHT22;5884;43.618;1.438;2022-09-24T10:09:10;19.00;99.90
11656;DHT22;5884;43.618;1.438;2022-09-24T10:11:40;19.20;99.90
11656;DHT22;5884;43.618;1.438;2022-09-24T10:14:10;19.40;99.90
11656;DHT22;5884;43.618;1.438;2022-09-24T10:16:39;19.30;99.90
11656;DHT22;5884;43.618;1.438;2022-09-24T10:19:14;19.30;99.90
11656;DHT22;5884;43.618;1.438;2022-09-24T10:21:43;19.50;99.90
11656;DHT22;5884;43.618;1.438;2022-09-24T10:24:14;19.80;99.90
11656;DHT22;5884;43.618;1.438;2022-09-24T10:26:44;19.90;99.90
11656;DHT22;5884;43.618;1.438;2022-09-24T10:29:14;20.00;99.90
11656;DHT22;5884;43.618;1.438;2022-09-24T10:32:01;20.20;99.90
11656;DHT22;5884;43.618;1.438;2022-09-24T10:34:29;20.70;99.90
11656;DHT22;5884;43.618;1.438;2022-09-24T10:37:01;21.00;99.90
11656;DHT22;5884;43.618;1.438;2022-09-24T10:39:30;21.20;99.90
11656;DHT22;5884;43.618;1.438;2022-09-24T10:41:58;21.20;99.90
11656;DHT22;5884;43.618;1.438;2022-09-24T10:44:31;21.10;99.90
11656;DHT22;5884;43.618;1.438;2022-09-24T10:47:21;20.80;99.90
11656;DHT22;5884;43.618;1.438;2022-09-24T10:50:06;20.60;99.90
11656;DHT22;5884;43.618;1.438;2022-09-24T10:52:52;20.60;99.90
11656;DHT22;5884;43.618;1.438;2022-09-24T10:55:36;20.90;99.90
11656;DHT22;5884;43.618;1.438;2022-09-24T10:58:19;21.00;99.90
11656;DHT22;5884;43.618;1.438;2022-09-24T11:01:06;20.60;99.90
11656;DHT22;5884;43.618;1.438;2022-09-24T11:03:53;20.60;99.90
11656;DHT22;5884;43.618;1.438;2022-09-24T11:06:39;20.60;99.90
11656;DHT22;5884;43.618;1.438;2022-09-24T11:09:19;20.60;99.90
11656;DHT22;5884;43.618;1.438;2022-09-24T11:11:59;20.80;99.90
11656;DHT22;5884;43.618;1.438;2022-09-24T11:14:46;21.10;99.90
11656;DHT22;5884;43.618;1.438;2022-09-24T11:17:32;21.30;99.90
11656;DHT22;5884;43.618;1.438;2022-09-24T11:20:29;21.30;99.90
11656;DHT22;5884;43.618;1.438;2022-09-24T11:23:26;21.10;99.90
11656;DHT22;5884;43.618;1.438;2022-09-24T11:26:12;21.10;99.90
11656;DHT22;5884;43.618;1.438;2022-09-24T11:32:02;20.80;99.90
11656;DHT22;5884;43.618;1.438;2022-09-24T11:37:42;20.30;99.90
11656;DHT22;5884;43.618;1.438;2022-09-24T11:43:39;20.30;99.90
11656;DHT22;5884;43.618;1.438;2022-09-24T11:46:25;20.20;99.90
11656;DHT22;5884;43.618;1.438;2022-09-24T11:49:21;20.30;99.90
11656;DHT22;5884;43.618;1.438;2022-09-24T11:52:07;20.30;99.90
11656;DHT22;5884;43.618;1.438;2022-09-24T11:54:42;20.30;99.90
11656;DHT22;5884;43.618;1.438;2022-09-24T11:57:14;20.50;99.90
11656;DHT22;5884;43.618;1.438;2022-09-24T11:59:49;20.50;99.90
11656;DHT22;5884;43.618;1.438;2022-09-24T12:02:25;20.60;99.90
11656;DHT22;5884;43.618;1.438;2022-09-24T12:04:59;20.40;99.90
11656;DHT22;5884;43.618;1.438;2022-09-24T12:07:35;20.50;99.90
11656;DHT22;5884;43.618;1.438;2022-09-24T12:10:25;20.60;99.90
11656;DHT22;5884;43.618;1.438;2022-09-24T12:13:02;20.60;99.90
11656;DHT22;5884;43.618;1.438;2022-09-24T12:15:41;20.60;99.90
11656;DHT22;5884;43.618;1.438;2022-09-24T12:18:16;20.60;99.90
11656;DHT22;5884;43.618;1.438;2022-09-24T12:20:49;20.50;99.90
11656;DHT22;5884;43.618;1.438;2022-09-24T12:23:22;20.60;99.90
11656;DHT22;5884;43.618;1.438;2022-09-24T12:25:54;20.50;99.90
11656;DHT22;5884;43.618;1.438;2022-09-24T12:28:23;20.30;99.90
11656;DHT22;5884;43.618;1.438;2022-09-24T12:31:21;20.30;99.90
11656;DHT22;5884;43.618;1.438;2022-09-24T12:34:15;20.30;99.90
11656;DHT22;5884;43.618;1.438;2022-09-24T12:36:54;20.10;99.90
11656;DHT22;5884;43.618;1.438;2022-09-24T12:39:28;20.20;99.90
11656;DHT22;5884;43.618;1.438;2022-09-24T12:42:00;20.20;99.90
11656;DHT22;5884;43.618;1.438;2022-09-24T12:44:36;20.30;99.90
11656;DHT22;5884;43.618;1.438;2022-09-24T12:47:16;20.50;99.90
11656;DHT22;5884;43.618;1.438;2022-09-24T12:49:49;20.20;99.90
11656;DHT22;5884;43.618;1.438;2022-09-24T12:52:23;20.20;99.90
11656;DHT22;5884;43.618;1.438;2022-09-24T12:54:57;20.40;99.90
11656;DHT22;5884;43.618;1.438;2022-09-24T12:57:27;20.50;99.90
11656;DHT22;5884;43.618;1.438;2022-09-24T12:59:58;20.80;99.90
11656;DHT22;5884;43.618;1.438;2022-09-24T13:02:27;21.40;99.90
11656;DHT22;5884;43.618;1.438;2022-09-24T13:05:15;21.30;99.90
11656;DHT22;5884;43.618;1.438;2022-09-24T13:07:58;21.00;99.90
11656;DHT22;5884;43.618;1.438;2022-09-24T13:10:28;20.70;99.90
11656;DHT22;5884;43.618;1.438;2022-09-24T13:12:57;20.50;99.90
11656;DHT22;5884;43.618;1.438;2022-09-24T13:15:30;20.30;99.90
11656;DHT22;5884;43.618;1.438;2022-09-24T13:18:18;20.40;99.90
11656;DHT22;5884;43.618;1.438;2022-09-24T13:21:00;20.40;99.90
11656;DHT22;5884;43.618;1.438;2022-09-24T13:23:44;20.30;99.90
11656;DHT22;5884;43.618;1.438;2022-09-24T13:26:26;20.40;99.90
11656;DHT22;5884;43.618;1.438;2022-09-24T13:28:55;20.40;99.90
11656;DHT22;5884;43.618;1.438;2022-09-24T13:31:34;20.30;99.90
11656;DHT22;5884;43.618;1.438;2022-09-24T13:34:16;20.40;99.90
11656;DHT22;5884;43.618;1.438;2022-09-24T13:36:48;20.30;99.90
11656;DHT22;5884;43.618;1.438;2022-09-24T13:39:28;20.20;99.90
11656;DHT22;5884;43.618;1.438;2022-09-24T13:42:05;20.00;99.90
11656;DHT22;5884;43.618;1.438;2022-09-24T13:44:37;20.20;99.90
11656;DHT22;5884;43.618;1.438;2022-09-24T13:47:26;20.10;99.90
11656;DHT22;5884;43.618;1.438;2022-09-24T13:50:06;20.20;99.90
11656;DHT22;5884;43.618;1.438;2022-09-24T13:52:36;20.20;99.90
11656;DHT22;5884;43.618;1.438;2022-09-24T13:55:14;20.40;99.90
11656;DHT22;5884;43.618;1.438;2022-09-24T13:57:44;20.30;99.90
11656;DHT22;5884;43.618;1.438;2022-09-24T14:00:15;20.60;99.90
11656;DHT22;5884;43.618;1.438;2022-09-24T14:02:55;20.50;99.90
11656;DHT22;5884;43.618;1.438;2022-09-24T14:05:25;20.70;99.90
11656;DHT22;5884;43.618;1.438;2022-09-24T14:08:00;20.70;99.90
11656;DHT22;5884;43.618;1.438;2022-09-24T14:10:31;20.60;99.90
11656;DHT22;5884;43.618;1.438;2022-09-24T14:13:02;20.60;99.90
11656;DHT22;5884;43.618;1.438;2022-09-24T14:15:49;20.40;99.90
11656;DHT22;5884;43.618;1.438;2022-09-24T14:18:17;20.00;99.90
11656;DHT22;5884;43.618;1.438;2022-09-24T14:20:48;20.00;99.90
11656;DHT22;5884;43.618;1.438;2022-09-24T14:23:19;20.00;99.90
11656;DHT22;5884;43.618;1.438;2022-09-24T14:25:51;20.00;99.90
11656;DHT22;5884;43.618;1.438;2022-09-24T14:28:19;19.90;99.90
11656;DHT22;5884;43.618;1.438;2022-09-24T14:30:50;19.80;99.90
11656;DHT22;5884;43.618;1.438;2022-09-24T14:33:20;19.70;99.90
11656;DHT22;5884;43.618;1.438;2022-09-24T14:35:54;19.60;99.90
11656;DHT22;5884;43.618;1.438;2022-09-24T14:38:24;19.40;99.90
11656;DHT22;5884;43.618;1.438;2022-09-24T14:40:58;19.40;99.90
11656;DHT22;5884;43.618;1.438;2022-09-24T14:43:30;19.40;99.90
11656;DHT22;5884;43.618;1.438;2022-09-24T14:46:03;19.40;99.90
11656;DHT22;5884;43.618;1.438;2022-09-24T14:48:33;19.30;99.90
11656;DHT22;5884;43.618;1.438;2022-09-24T14:51:00;19.20;99.90
11656;DHT22;5884;43.618;1.438;2022-09-24T14:53:30;19.20;99.90
11656;DHT22;5884;43.618;1.438;2022-09-24T14:56:05;19.10;99.90
11656;DHT22;5884;43.618;1.438;2022-09-24T14:58:44;19.20;99.90
11656;DHT22;5884;43.618;1.438;2022-09-24T15:01:13;19.10;99.90
11656;DHT22;5884;43.618;1.438;2022-09-24T15:03:46;19.00;99.90
11656;DHT22;5884;43.618;1.438;2022-09-24T15:06:20;18.80;99.90
11656;DHT22;5884;43.618;1.438;2022-09-24T15:08:54;18.60;99.90
11656;DHT22;5884;43.618;1.438;2022-09-24T15:11:26;18.60;99.90
11656;DHT22;5884;43.618;1.438;2022-09-24T15:14:00;18.80;99.90
11656;DHT22;5884;43.618;1.438;2022-09-24T15:16:31;18.90;99.90
11656;DHT22;5884;43.618;1.438;2022-09-24T15:19:13;18.90;99.90
11656;DHT22;5884;43.618;1.438;2022-09-24T15:21:44;18.70;99.90
11656;DHT22;5884;43.618;1.438;2022-09-24T15:24:13;18.60;99.90
11656;DHT22;5884;43.618;1.438;2022-09-24T15:26:44;18.50;99.90
11656;DHT22;5884;43.618;1.438;2022-09-24T15:29:20;18.30;99.90
11656;DHT22;5884;43.618;1.438;2022-09-24T15:31:49;18.20;99.90
11656;DHT22;5884;43.618;1.438;2022-09-24T15:34:16;18.10;99.90
11656;DHT22;5884;43.618;1.438;2022-09-24T15:36:45;18.10;99.90
11656;DHT22;5884;43.618;1.438;2022-09-24T15:39:12;18.10;99.90
11656;DHT22;5884;43.618;1.438;2022-09-24T15:41:41;18.00;99.90
11656;DHT22;5884;43.618;1.438;2022-09-24T15:44:10;18.00;99.90
11656;DHT22;5884;43.618;1.438;2022-09-24T15:46:45;18.00;99.90
11656;DHT22;5884;43.618;1.438;2022-09-24T15:49:15;18.00;99.90
11656;DHT22;5884;43.618;1.438;2022-09-24T15:51:46;18.00;99.90
11656;DHT22;5884;43.618;1.438;2022-09-24T15:54:14;18.00;99.90
11656;DHT22;5884;43.618;1.438;2022-09-24T15:56:43;18.00;99.90
11656;DHT22;5884;43.618;1.438;2022-09-24T15:59:16;18.00;99.90
11656;DHT22;5884;43.618;1.438;2022-09-24T16:01:44;17.90;99.90
11656;DHT22;5884;43.618;1.438;2022-09-24T16:04:12;17.90;99.90
11656;DHT22;5884;43.618;1.438;2022-09-24T16:06:40;17.90;99.90
11656;DHT22;5884;43.618;1.438;2022-09-24T16:09:08;17.80;99.90
11656;DHT22;5884;43.618;1.438;2022-09-24T16:11:35;17.80;99.90
11656;DHT22;5884;43.618;1.438;2022-09-24T16:14:04;17.90;99.90
11656;DHT22;5884;43.618;1.438;2022-09-24T16:16:32;17.90;99.90
11656;DHT22;5884;43.618;1.438;2022-09-24T16:18:59;18.00;99.90
11656;DHT22;5884;43.618;1.438;2022-09-24T16:21:26;18.00;99.90
11656;DHT22;5884;43.618;1.438;2022-09-24T16:23:54;18.00;99.90
11656;DHT22;5884;43.618;1.438;2022-09-24T16:26:21;18.00;99.90
11656;DHT22;5884;43.618;1.438;2022-09-24T16:28:49;18.00;99.90
11656;DHT22;5884;43.618;1.438;2022-09-24T16:31:18;18.00;99.90
11656;DHT22;5884;43.618;1.438;2022-09-24T16:33:45;18.00;99.90
11656;DHT22;5884;43.618;1.438;2022-09-24T16:36:13;17.90;99.90
11656;DHT22;5884;43.618;1.438;2022-09-24T16:38:40;18.00;99.90
11656;DHT22;5884;43.618;1.438;2022-09-24T16:41:08;18.00;99.90
11656;DHT22;5884;43.618;1.438;2022-09-24T16:43:35;18.00;99.90
11656;DHT22;5884;43.618;1.438;2022-09-24T16:46:04;18.00;99.90
11656;DHT22;5884;43.618;1.438;2022-09-24T16:48:34;18.00;99.90
11656;DHT22;5884;43.618;1.438;2022-09-24T16:51:03;18.00;99.90
11656;DHT22;5884;43.618;1.438;2022-09-24T16:53:32;18.00;99.90
11656;DHT22;5884;43.618;1.438;2022-09-24T16:56:04;17.90;99.90
11656;DHT22;5884;43.618;1.438;2022-09-24T16:58:33;17.90;99.90
11656;DHT22;5884;43.618;1.438;2022-09-24T17:01:03;17.90;99.90
11656;DHT22;5884;43.618;1.438;2022-09-24T17:03:31;17.90;99.90
11656;DHT22;5884;43.618;1.438;2022-09-24T17:06:00;18.00;99.90
11656;DHT22;5884;43.618;1.438;2022-09-24T17:08:30;17.90;99.90
11656;DHT22;5884;43.618;1.438;2022-09-24T17:11:11;17.90;99.90
11656;DHT22;5884;43.618;1.438;2022-09-24T17:13:38;17.90;99.90
11656;DHT22;5884;43.618;1.438;2022-09-24T17:16:06;17.80;99.90
11656;DHT22;5884;43.618;1.438;2022-09-24T17:18:33;17.80;99.90
11656;DHT22;5884;43.618;1.438;2022-09-24T17:21:04;17.80;99.90
11656;DHT22;5884;43.618;1.438;2022-09-24T17:23:32;17.80;99.90
11656;DHT22;5884;43.618;1.438;2022-09-24T17:26:01;17.70;99.90
11656;DHT22;5884;43.618;1.438;2022-09-24T17:28:31;17.70;99.90
11656;DHT22;5884;43.618;1.438;2022-09-24T17:30:58;17.70;99.90
11656;DHT22;5884;43.618;1.438;2022-09-24T17:33:26;17.60;99.90
11656;DHT22;5884;43.618;1.438;2022-09-24T17:35:53;17.60;99.90
11656;DHT22;5884;43.618;1.438;2022-09-24T17:38:23;17.60;99.90
11656;DHT22;5884;43.618;1.438;2022-09-24T17:40:53;17.60;99.90
11656;DHT22;5884;43.618;1.438;2022-09-24T17:43:21;17.60;99.90
11656;DHT22;5884;43.618;1.438;2022-09-24T17:45:57;17.60;99.90
11656;DHT22;5884;43.618;1.438;2022-09-24T17:48:28;17.50;99.90
11656;DHT22;5884;43.618;1.438;2022-09-24T17:50:57;17.50;99.90
11656;DHT22;5884;43.618;1.438;2022-09-24T17:53:32;17.50;99.90
11656;DHT22;5884;43.618;1.438;2022-09-24T17:56:00;17.50;99.90
11656;DHT22;5884;43.618;1.438;2022-09-24T17:58:28;17.40;99.90
11656;DHT22;5884;43.618;1.438;2022-09-24T18:01:02;17.40;99.90
11656;DHT22;5884;43.618;1.438;2022-09-24T18:03:31;17.30;99.90
11656;DHT22;5884;43.618;1.438;2022-09-24T18:05:59;17.30;99.90
11656;DHT22;5884;43.618;1.438;2022-09-24T18:08:28;17.40;99.90
11656;DHT22;5884;43.618;1.438;2022-09-24T18:11:02;17.30;99.90
11656;DHT22;5884;43.618;1.438;2022-09-24T18:13:31;17.30;99.90
11656;DHT22;5884;43.618;1.438;2022-09-24T18:16:03;17.30;99.90
11656;DHT22;5884;43.618;1.438;2022-09-24T18:18:32;17.20;99.90
11656;DHT22;5884;43.618;1.438;2022-09-24T18:20:59;17.20;99.90
11656;DHT22;5884;43.618;1.438;2022-09-24T18:23:28;17.20;99.90
11656;DHT22;5884;43.618;1.438;2022-09-24T18:26:05;17.20;99.90
11656;DHT22;5884;43.618;1.438;2022-09-24T18:28:35;17.20;99.90
11656;DHT22;5884;43.618;1.438;2022-09-24T18:31:05;17.20;99.90
11656;DHT22;5884;43.618;1.438;2022-09-24T18:33:33;17.20;99.90
11656;DHT22;5884;43.618;1.438;2022-09-24T18:36:02;17.20;99.90
11656;DHT22;5884;43.618;1.438;2022-09-24T18:38:32;17.20;99.90
11656;DHT22;5884;43.618;1.438;2022-09-24T18:41:04;17.20;99.90
11656;DHT22;5884;43.618;1.438;2022-09-24T18:43:33;17.10;99.90
11656;DHT22;5884;43.618;1.438;2022-09-24T18:46:01;17.10;99.90
11656;DHT22;5884;43.618;1.438;2022-09-24T18:48:30;17.10;99.90
11656;DHT22;5884;43.618;1.438;2022-09-24T18:50:58;17.00;99.90
11656;DHT22;5884;43.618;1.438;2022-09-24T18:53:26;17.00;99.90
11656;DHT22;5884;43.618;1.438;2022-09-24T18:55:57;16.90;99.90
11656;DHT22;5884;43.618;1.438;2022-09-24T18:58:25;16.80;99.90
11656;DHT22;5884;43.618;1.438;2022-09-24T19:00:57;16.80;99.90
11656;DHT22;5884;43.618;1.438;2022-09-24T19:03:25;16.80;99.90
11656;DHT22;5884;43.618;1.438;2022-09-24T19:05:54;16.80;99.90
11656;DHT22;5884;43.618;1.438;2022-09-24T19:08:26;16.80;99.90
11656;DHT22;5884;43.618;1.438;2022-09-24T19:11:00;16.70;99.90
11656;DHT22;5884;43.618;1.438;2022-09-24T19:13:29;16.60;99.90
11656;DHT22;5884;43.618;1.438;2022-09-24T19:16:04;16.60;99.90
11656;DHT22;5884;43.618;1.438;2022-09-24T19:18:35;16.60;99.90
11656;DHT22;5884;43.618;1.438;2022-09-24T19:21:06;16.50;99.90
11656;DHT22;5884;43.618;1.438;2022-09-24T19:23:35;16.50;99.90
11656;DHT22;5884;43.618;1.438;2022-09-24T19:26:05;16.40;99.90
11656;DHT22;5884;43.618;1.438;2022-09-24T19:28:34;16.40;99.90
11656;DHT22;5884;43.618;1.438;2022-09-24T19:31:02;16.40;99.90
11656;DHT22;5884;43.618;1.438;2022-09-24T19:33:31;16.40;99.90
11656;DHT22;5884;43.618;1.438;2022-09-24T19:36:00;16.30;99.90
11656;DHT22;5884;43.618;1.438;2022-09-24T19:38:30;16.30;99.90
11656;DHT22;5884;43.618;1.438;2022-09-24T19:41:02;16.30;99.90
11656;DHT22;5884;43.618;1.438;2022-09-24T19:43:35;16.20;99.90
11656;DHT22;5884;43.618;1.438;2022-09-24T19:46:05;16.20;99.90
11656;DHT22;5884;43.618;1.438;2022-09-24T19:48:36;16.20;99.90
11656;DHT22;5884;43.618;1.438;2022-09-24T19:51:07;16.10;99.90
11656;DHT22;5884;43.618;1.438;2022-09-24T19:53:39;16.10;99.90
11656;DHT22;5884;43.618;1.438;2022-09-24T19:56:11;16.00;99.90
11656;DHT22;5884;43.618;1.438;2022-09-24T19:58:44;16.00;99.90
11656;DHT22;5884;43.618;1.438;2022-09-24T20:01:13;16.00;99.90
11656;DHT22;5884;43.618;1.438;2022-09-24T20:03:40;15.90;99.90
11656;DHT22;5884;43.618;1.438;2022-09-24T20:06:10;15.90;99.90
11656;DHT22;5884;43.618;1.438;2022-09-24T20:08:44;15.90;99.90
11656;DHT22;5884;43.618;1.438;2022-09-24T20:11:17;15.90;99.90
11656;DHT22;5884;43.618;1.438;2022-09-24T20:13:46;15.90;99.90
11656;DHT22;5884;43.618;1.438;2022-09-24T20:16:15;15.80;99.90
11656;DHT22;5884;43.618;1.438;2022-09-24T20:18:44;15.80;99.90
11656;DHT22;5884;43.618;1.438;2022-09-24T20:21:14;15.80;99.90
11656;DHT22;5884;43.618;1.438;2022-09-24T20:23:43;15.80;99.90
11656;DHT22;5884;43.618;1.438;2022-09-24T20:26:21;15.70;99.90
11656;DHT22;5884;43.618;1.438;2022-09-24T20:29:12;15.60;99.90
11656;DHT22;5884;43.618;1.438;2022-09-24T20:31:40;15.60;99.90
11656;DHT22;5884;43.618;1.438;2022-09-24T20:34:15;15.60;99.90
11656;DHT22;5884;43.618;1.438;2022-09-24T20:36:45;15.60;99.90
11656;DHT22;5884;43.618;1.438;2022-09-24T20:39:16;15.50;99.90
11656;DHT22;5884;43.618;1.438;2022-09-24T20:41:46;15.50;99.90
11656;DHT22;5884;43.618;1.438;2022-09-24T20:44:14;15.50;99.90
11656;DHT22;5884;43.618;1.438;2022-09-24T20:46:41;15.50;99.90
11656;DHT22;5884;43.618;1.438;2022-09-24T20:49:16;15.50;99.90
11656;DHT22;5884;43.618;1.438;2022-09-24T20:51:47;15.50;99.90
11656;DHT22;5884;43.618;1.438;2022-09-24T20:54:19;15.40;99.90
11656;DHT22;5884;43.618;1.438;2022-09-24T20:56:50;15.40;99.90
11656;DHT22;5884;43.618;1.438;2022-09-24T20:59:23;15.20;99.90
